createdAt,value
2019-05-16T00:02:18.405Z,48.04
2019-05-16T00:04:44.815Z,48.05
2019-05-16T00:07:13.492Z,48.27
2019-05-16T00:09:40.072Z,48.48
2019-05-16T00:12:08.682Z,48.54
2019-05-16T00:14:38.594Z,48.82
2019-05-16T00:17:05.338Z,48.30
2019-05-16T00:19:31.948Z,48.68
2019-05-16T00:22:01.327Z,48.76
2019-05-16T00:24:29.154Z,48.24
2019-05-16T00:26:57.919Z,48.35
2019-05-16T00:29:27.710Z,47.66
2019-05-16T00:31:54.429Z,47.82
2019-05-16T00:34:21.006Z,47.69
2019-05-16T00:36:49.637Z,46.79
2019-05-16T00:39:18.406Z,47.56
2019-05-16T00:41:44.563Z,47.20
2019-05-16T00:44:12.590Z,47.04
2019-05-16T00:46:39.207Z,47.00
2019-05-16T00:49:08.119Z,47.45
2019-05-16T00:51:37.688Z,47.33
2019-05-16T00:54:04.677Z,46.88
2019-05-16T00:56:31.267Z,47.33
2019-05-16T00:59:00.815Z,47.68
2019-05-16T01:01:28.292Z,48.02
2019-05-16T01:03:55.123Z,47.65
2019-05-16T01:06:23.655Z,47.69
2019-05-16T01:08:50.310Z,48.01
2019-05-16T01:11:18.454Z,48.24
2019-05-16T01:13:48.781Z,47.15
2019-05-16T01:16:15.466Z,48.10
2019-05-16T01:18:42.053Z,47.66
2019-05-16T01:21:12.236Z,47.23
2019-05-16T01:23:38.984Z,47.75
2019-05-16T01:26:07.814Z,48.15
2019-05-16T01:28:37.635Z,48.20
2019-05-16T01:31:03.936Z,48.71
2019-05-16T01:33:30.527Z,49.06
2019-05-16T01:35:59.645Z,48.86
2019-05-16T01:38:28.337Z,48.19
2019-05-16T01:40:54.531Z,47.57
2019-05-16T01:43:28.408Z,47.23
2019-05-16T01:45:55.114Z,47.54
2019-05-16T01:48:21.676Z,48.56
2019-05-16T01:50:52.374Z,48.77
2019-05-16T01:53:19.209Z,49.58
2019-05-16T01:55:45.922Z,49.42
2019-05-16T01:58:15.522Z,49.11
2019-05-16T02:00:52.584Z,49.18
2019-05-16T02:03:10.507Z,49.08
2019-05-16T02:05:40.346Z,48.35
2019-05-16T02:08:08.894Z,49.05
2019-05-16T02:10:37.728Z,49.06
2019-05-16T02:13:05.876Z,49.07
2019-05-16T02:15:32.756Z,49.14
2019-05-16T02:17:59.632Z,48.00
2019-05-16T02:20:29.174Z,48.02
2019-05-16T02:22:55.760Z,47.26
2019-05-16T02:25:22.473Z,47.11
2019-05-16T02:27:50.999Z,48.00
2019-05-16T02:30:21.336Z,48.82
2019-05-16T02:32:45.903Z,48.73
2019-05-16T02:35:14.919Z,48.36
2019-05-16T02:37:42.477Z,49.12
2019-05-16T02:40:12.056Z,49.60
2019-05-16T02:42:41.960Z,49.25
2019-05-16T02:45:10.643Z,49.09
2019-05-16T02:47:37.557Z,49.34
2019-05-16T02:50:06.359Z,49.89
2019-05-16T02:52:32.928Z,49.20
2019-05-16T02:55:00.920Z,49.28
2019-05-16T02:57:31.564Z,48.65
2019-05-16T03:00:01.770Z,48.23
2019-05-16T03:02:27.052Z,48.92
2019-05-16T03:04:56.168Z,48.52
2019-05-16T03:07:36.485Z,48.55
2019-05-16T03:09:51.485Z,49.00
2019-05-16T03:12:21.190Z,48.36
2019-05-16T03:14:50.361Z,48.34
2019-05-16T03:17:16.172Z,47.95
2019-05-16T03:19:44.893Z,47.87
2019-05-16T03:22:11.838Z,47.02
2019-05-16T03:24:41.753Z,46.49
2019-05-16T03:27:10.978Z,47.40
2019-05-16T03:29:37.647Z,47.68
2019-05-16T03:32:04.523Z,46.50
2019-05-16T03:34:34.729Z,46.55
2019-05-16T03:37:03.998Z,47.21
2019-05-16T03:39:31.423Z,47.79
2019-05-16T03:42:01.075Z,47.68
2019-05-16T03:44:31.462Z,47.85
2019-05-16T03:46:56.143Z,47.92
2019-05-16T03:49:25.096Z,47.19
2019-05-16T03:51:51.735Z,47.19
2019-05-16T03:54:21.102Z,46.98
2019-05-16T03:56:51.398Z,47.15
2019-05-16T03:59:17.208Z,47.03
2019-05-16T04:01:43.788Z,47.92
2019-05-16T04:04:13.890Z,47.70
2019-05-16T04:06:41.598Z,46.08
2019-05-16T04:09:11.879Z,46.38
2019-05-16T04:11:42.121Z,47.12
2019-05-16T04:14:10.626Z,47.01
2019-05-16T04:16:37.334Z,47.33
2019-05-16T04:19:06.191Z,47.11
2019-05-16T04:21:33.076Z,45.94
2019-05-16T04:24:01.207Z,46.78
2019-05-16T04:26:31.433Z,47.45
2019-05-16T04:29:00.767Z,47.86
2019-05-16T04:31:30.540Z,47.79
2019-05-16T04:33:57.412Z,47.62
2019-05-16T04:36:24.000Z,47.66
2019-05-16T04:38:51.346Z,48.63
2019-05-16T04:41:21.148Z,48.32
2019-05-16T04:43:50.585Z,47.90
2019-05-16T04:48:50.811Z,48.17
2019-05-16T04:51:17.196Z,49.63
2019-05-16T04:53:43.788Z,48.52
2019-05-16T04:56:12.184Z,48.11
2019-05-16T04:58:40.859Z,46.45
2019-05-16T05:01:07.364Z,46.68
2019-05-16T05:03:36.502Z,46.43
2019-05-16T05:06:03.369Z,46.00
2019-05-16T05:08:57.065Z,46.94
2019-05-16T05:11:21.242Z,46.09
2019-05-16T05:13:46.376Z,46.43
2019-05-16T05:16:13.125Z,45.61
2019-05-16T05:18:42.177Z,45.57
2019-05-16T05:21:11.417Z,45.81
2019-05-16T05:23:37.672Z,46.07
2019-05-16T05:26:06.264Z,45.84
2019-05-16T05:28:32.856Z,45.23
2019-05-16T05:30:59.870Z,44.95
2019-05-16T05:33:30.456Z,44.32
2019-05-16T05:35:57.101Z,44.49
2019-05-16T05:38:23.976Z,44.39
2019-05-16T05:40:53.277Z,44.26
2019-05-16T05:43:21.476Z,44.98
2019-05-16T05:45:50.917Z,42.82
2019-05-16T05:48:21.483Z,43.41
2019-05-16T05:50:47.435Z,43.48
2019-05-16T05:53:14.191Z,43.89
2019-05-16T05:55:42.934Z,43.87
2019-05-16T05:58:10.153Z,44.35
2019-05-16T06:00:36.711Z,45.13
2019-05-16T06:03:06.001Z,45.35
2019-05-16T06:05:32.859Z,44.86
2019-05-16T06:08:00.278Z,43.55
2019-05-16T06:10:30.475Z,44.36
2019-05-16T06:12:57.354Z,45.27
2019-05-16T06:15:23.932Z,45.37
2019-05-16T06:18:00.061Z,45.06
2019-05-16T06:20:25.656Z,45.78
2019-05-16T06:22:52.260Z,46.30
2019-05-16T06:25:23.194Z,46.55
2019-05-16T06:27:51.191Z,46.76
2019-05-16T06:30:20.615Z,47.42
2019-05-16T06:32:50.182Z,46.60
2019-05-16T06:35:16.884Z,46.95
2019-05-16T06:37:43.481Z,47.43
2019-05-16T06:40:12.913Z,46.25
2019-05-16T06:42:40.248Z,46.68
2019-05-16T06:45:10.117Z,44.84
2019-05-16T06:47:41.309Z,45.08
2019-05-16T06:50:11.445Z,46.39
2019-05-16T06:52:36.319Z,45.92
2019-05-16T06:55:09.862Z,45.00
2019-05-16T06:57:36.367Z,44.73
2019-05-16T07:00:03.262Z,45.11
2019-05-16T07:02:36.068Z,46.23
2019-05-16T07:05:02.952Z,44.97
2019-05-16T07:07:30.762Z,46.08
2019-05-16T07:10:04.692Z,46.16
2019-05-16T07:12:33.784Z,46.54
2019-05-16T07:15:01.236Z,45.84
2019-05-16T07:17:31.526Z,46.03
2019-05-16T07:20:05.112Z,45.65
2019-05-16T07:22:31.200Z,46.03
2019-05-16T07:25:00.074Z,46.17
2019-05-16T07:27:26.744Z,45.56
2019-05-16T07:29:53.495Z,44.66
2019-05-16T07:32:22.487Z,43.62
2019-05-16T07:34:50.992Z,43.34
2019-05-16T07:37:19.884Z,43.55
2019-05-16T07:39:51.102Z,45.02
2019-05-16T07:42:16.998Z,44.22
2019-05-16T07:44:45.956Z,44.58
2019-05-16T07:47:20.298Z,44.23
2019-05-16T07:49:47.338Z,42.80
2019-05-16T07:52:20.623Z,44.66
2019-05-16T07:54:50.707Z,42.94
2019-05-16T07:57:37.249Z,43.33
2019-05-16T08:00:07.069Z,41.71
2019-05-16T08:02:40.229Z,42.93
2019-05-16T08:05:10.328Z,42.61
2019-05-16T08:07:40.753Z,42.53
2019-05-16T08:10:07.722Z,41.84
2019-05-16T08:12:40.599Z,41.81
2019-05-16T08:17:44.260Z,41.02
2019-05-16T08:20:10.795Z,42.09
2019-05-16T08:22:43.315Z,42.42
2019-05-16T08:25:15.692Z,42.43
2019-05-16T08:27:52.016Z,42.50
2019-05-16T08:30:21.056Z,42.11
2019-05-16T08:32:52.842Z,41.29
2019-05-16T08:35:21.092Z,41.47
2019-05-16T08:37:47.258Z,42.17
2019-05-16T08:40:21.303Z,42.75
2019-05-16T08:42:45.624Z,41.58
2019-05-16T08:45:13.154Z,41.70
2019-05-16T08:47:46.447Z,41.80
2019-05-16T08:50:21.740Z,41.37
2019-05-16T08:52:52.912Z,39.89
2019-05-16T08:55:21.916Z,38.68
2019-05-16T08:57:52.815Z,40.20
2019-05-16T09:00:21.777Z,41.05
2019-05-16T09:02:53.263Z,39.49
2019-05-16T09:05:22.673Z,38.56
2019-05-16T09:07:49.087Z,40.02
2019-05-16T09:10:49.809Z,39.71
2019-05-16T09:12:49.431Z,39.35
2019-05-16T09:15:17.063Z,39.99
2019-05-16T09:17:47.455Z,40.04
2019-05-16T09:20:17.408Z,39.89
2019-05-16T09:22:44.635Z,38.55
2019-05-16T09:25:13.451Z,38.68
2019-05-16T09:27:40.060Z,39.07
2019-05-16T09:30:07.936Z,38.13
2019-05-16T09:32:42.381Z,38.08
2019-05-16T09:35:08.169Z,38.44
2019-05-16T09:37:37.348Z,37.38
2019-05-16T09:40:06.487Z,38.01
2019-05-16T09:42:33.216Z,38.21
2019-05-16T09:45:02.161Z,39.89
2019-05-16T09:47:31.671Z,39.21
2019-05-16T09:49:59.330Z,39.85
2019-05-16T09:52:27.395Z,40.02
2019-05-16T09:57:32.538Z,40.81
2019-05-16T10:00:06.629Z,40.27
2019-05-16T10:05:26.624Z,38.79
2019-05-16T10:07:58.180Z,39.11
2019-05-16T10:10:26.277Z,39.79
2019-05-16T10:12:54.269Z,38.72
2019-05-16T10:15:26.963Z,38.41
2019-05-16T10:17:53.511Z,38.40
2019-05-16T10:20:20.415Z,37.23
2019-05-16T10:22:50.862Z,37.14
2019-05-16T10:25:19.535Z,37.89
2019-05-16T10:27:47.568Z,37.49
2019-05-16T10:30:17.560Z,37.77
2019-05-16T10:32:47.208Z,38.93
2019-05-16T10:35:13.251Z,38.10
2019-05-16T10:37:42.389Z,38.17
2019-05-16T10:40:09.117Z,39.14
2019-05-16T10:42:38.037Z,37.21
2019-05-16T10:45:08.710Z,37.18
2019-05-16T10:47:37.494Z,37.07
2019-05-16T10:50:08.459Z,37.74
2019-05-16T10:52:37.419Z,38.68
2019-05-16T10:55:04.178Z,38.58
2019-05-16T10:57:31.136Z,38.50
2019-05-16T11:00:08.858Z,37.56
2019-05-16T11:02:28.609Z,38.21
2019-05-16T11:05:02.837Z,38.36
2019-05-16T11:07:29.425Z,39.30
2019-05-16T11:10:01.376Z,39.94
2019-05-16T11:12:22.916Z,39.83
2019-05-16T11:14:54.543Z,40.20
2019-05-16T11:17:27.662Z,39.23
2019-05-16T11:19:55.550Z,40.21
2019-05-16T11:22:29.986Z,39.35
2019-05-16T11:24:59.870Z,37.91
2019-05-16T11:27:26.506Z,38.55
2019-05-16T11:29:56.624Z,39.78
2019-05-16T11:32:23.575Z,38.51
2019-05-16T11:34:50.306Z,40.21
2019-05-16T11:37:19.752Z,39.72
2019-05-16T11:39:46.641Z,40.27
2019-05-16T11:42:13.281Z,40.09
2019-05-16T11:44:42.204Z,39.75
2019-05-16T11:47:09.261Z,38.84
2019-05-16T11:49:36.918Z,39.65
2019-05-16T11:52:07.448Z,39.13
2019-05-16T11:54:34.225Z,38.76
2019-05-16T11:57:01.433Z,39.27
2019-05-16T12:02:04.370Z,40.24
2019-05-16T12:04:34.360Z,38.70
2019-05-16T12:07:01.157Z,40.12
2019-05-16T12:12:21.894Z,41.98
2019-05-16T12:14:51.024Z,41.78
2019-05-16T12:17:18.196Z,43.05
2019-05-16T12:19:48.259Z,43.46
2019-05-16T12:22:18.295Z,44.39
2019-05-16T12:24:44.409Z,44.39
2019-05-16T12:27:11.305Z,45.21
2019-05-16T12:29:40.107Z,45.78
2019-05-16T12:32:07.855Z,45.71
2019-05-16T12:34:36.873Z,46.05
2019-05-16T12:37:08.270Z,46.51
2019-05-16T12:39:37.770Z,46.46
2019-05-16T12:42:03.511Z,46.57
2019-05-16T12:44:32.333Z,46.23
2019-05-16T12:46:59.097Z,47.08
2019-05-16T12:49:25.715Z,46.30
2019-05-16T12:51:57.034Z,46.72
2019-05-16T12:54:23.967Z,46.65
2019-05-16T12:56:52.731Z,46.64
2019-05-16T12:59:21.856Z,47.42
2019-05-16T13:01:48.549Z,47.27
2019-05-16T13:04:18.897Z,47.66
2019-05-16T13:06:47.110Z,47.74
2019-05-16T13:09:13.781Z,47.63
2019-05-16T13:11:40.724Z,47.35
2019-05-16T13:14:11.301Z,47.65
2019-05-16T13:16:37.744Z,47.78
2019-05-16T13:19:06.843Z,47.55
2019-05-16T13:29:11.070Z,48.19
2019-05-16T13:31:37.963Z,48.02
2019-05-16T13:34:07.435Z,48.09
2019-05-16T13:36:34.291Z,48.11
2019-05-16T13:39:02.573Z,47.70
2019-05-16T13:41:34.357Z,47.63
2019-05-16T13:44:13.912Z,47.63
2019-05-16T13:46:28.582Z,46.99
2019-05-16T13:48:57.268Z,47.35
2019-05-16T13:51:24.118Z,47.13
2019-05-16T13:53:50.736Z,47.11
2019-05-16T13:56:20.235Z,47.59
2019-05-16T13:58:47.158Z,48.21
2019-05-16T14:01:13.909Z,48.67
2019-05-16T14:03:43.190Z,48.63
2019-05-16T14:06:09.904Z,48.44
2019-05-16T14:08:39.496Z,48.49
2019-05-16T14:11:10.988Z,48.98
2019-05-16T14:13:37.847Z,49.25
2019-05-16T14:16:07.101Z,50.33
2019-05-16T14:18:38.039Z,51.04
2019-05-16T14:21:06.885Z,51.34
2019-05-16T14:23:33.580Z,51.98
2019-05-16T14:28:37.184Z,52.91
2019-05-16T14:31:07.221Z,52.76
2019-05-16T14:33:36.710Z,52.22
2019-05-16T14:36:07.489Z,52.06
2019-05-16T14:38:37.735Z,51.51
2019-05-16T14:41:04.639Z,51.11
2019-05-16T14:43:36.934Z,50.37
2019-05-16T14:46:07.044Z,51.47
2019-05-16T14:48:32.455Z,51.22
2019-05-16T14:51:02.528Z,51.49
2019-05-16T14:53:32.328Z,51.72
2019-05-16T14:56:02.532Z,51.61
2019-05-16T14:58:57.839Z,51.94
2019-05-16T15:01:31.627Z,52.73
2019-05-16T15:04:02.704Z,52.99
2019-05-16T15:06:29.766Z,54.01
2019-05-16T15:08:58.205Z,53.58
2019-05-16T15:11:28.486Z,53.74
2019-05-16T15:13:58.209Z,53.94
2019-05-16T15:16:27.296Z,54.15
2019-05-16T15:18:59.748Z,53.81
2019-05-16T15:21:28.355Z,53.28
2019-05-16T15:24:00.944Z,53.80
2019-05-16T15:26:31.379Z,53.48
2019-05-16T15:28:59.201Z,52.82
2019-05-16T15:31:36.295Z,53.60
2019-05-16T15:36:37.504Z,53.07
2019-05-16T15:39:07.839Z,53.18
2019-05-16T15:41:39.657Z,53.68
2019-05-16T15:49:19.561Z,52.65
2019-05-16T15:51:47.301Z,52.66
2019-05-16T15:54:20.390Z,52.75
2019-05-16T15:56:50.377Z,53.00
2019-05-16T15:59:18.128Z,53.38
2019-05-16T16:01:47.427Z,53.39
2019-05-16T16:04:18.367Z,52.63
2019-05-16T16:06:49.090Z,52.38
2019-05-16T16:09:17.458Z,51.57
2019-05-16T16:11:48.675Z,52.52
2019-05-16T16:14:17.174Z,52.41
2019-05-16T16:16:46.345Z,52.41
2019-05-16T16:19:17.453Z,52.06
2019-05-16T16:21:47.326Z,52.77
2019-05-16T16:24:18.908Z,52.81
2019-05-16T16:34:28.542Z,53.41
2019-05-16T16:36:56.933Z,53.58
2019-05-16T16:39:31.076Z,52.90
2019-05-16T16:42:01.516Z,52.50
2019-05-16T16:44:37.485Z,51.95
2019-05-16T16:47:06.711Z,51.46
2019-05-16T16:54:44.607Z,52.57
2019-05-16T16:57:11.724Z,52.76
2019-05-16T16:59:38.833Z,52.30
2019-05-16T17:02:10.520Z,51.79
2019-05-16T17:04:38.706Z,51.70
2019-05-16T17:07:07.173Z,51.32
2019-05-16T17:12:10.640Z,51.30
2019-05-16T17:14:39.983Z,51.28
2019-05-16T17:17:07.126Z,51.33
2019-05-16T17:22:17.001Z,51.64
2019-05-16T17:24:40.548Z,51.50
2019-05-16T17:27:09.793Z,51.55
2019-05-16T17:29:38.809Z,51.53
2019-05-16T17:32:09.919Z,50.74
2019-05-16T17:34:34.667Z,51.07
2019-05-16T17:37:08.990Z,50.59
2019-05-16T17:39:34.208Z,51.08
2019-05-16T17:42:03.712Z,50.64
2019-05-16T17:44:32.323Z,51.30
2019-05-16T17:46:59.266Z,51.75
2019-05-16T17:49:29.866Z,51.25
2019-05-16T17:51:59.147Z,51.07
2019-05-16T17:54:26.757Z,51.29
2019-05-16T17:56:53.932Z,52.01
2019-05-16T18:01:57.528Z,51.98
2019-05-16T18:04:26.538Z,52.26
2019-05-16T18:06:52.654Z,52.77
2019-05-16T18:09:21.303Z,52.75
2019-05-16T18:11:47.972Z,52.65
2019-05-16T18:14:16.955Z,52.44
2019-05-16T18:16:53.727Z,52.90
2019-05-16T18:19:19.689Z,52.66
2019-05-16T18:21:46.462Z,52.22
2019-05-16T18:24:16.711Z,52.56
2019-05-16T18:26:43.716Z,52.11
2019-05-16T18:29:10.318Z,52.09
2019-05-16T18:31:38.983Z,52.50
2019-05-16T18:34:07.354Z,52.49
2019-05-16T18:36:34.199Z,52.19
2019-05-16T18:39:03.822Z,52.43
2019-05-16T18:41:30.511Z,52.24
2019-05-16T18:43:57.140Z,52.09
2019-05-16T18:46:26.906Z,51.84
2019-05-16T18:51:29.274Z,52.27
2019-05-16T18:54:00.658Z,51.75
2019-05-16T18:56:27.352Z,51.95
2019-05-16T18:58:53.959Z,51.98
2019-05-16T19:01:23.671Z,52.41
2019-05-16T19:03:50.276Z,52.63
2019-05-16T19:06:17.088Z,52.78
2019-05-16T19:08:45.945Z,52.63
2019-05-16T19:11:12.535Z,52.56
2019-05-16T19:13:39.227Z,52.59
2019-05-16T19:16:08.196Z,52.58
2019-05-16T19:18:36.789Z,52.46
2019-05-16T19:21:03.135Z,52.60
2019-05-16T19:23:33.836Z,52.76
2019-05-16T19:26:00.678Z,52.82
2019-05-16T19:28:28.696Z,52.58
2019-05-16T19:30:57.484Z,52.73
2019-05-16T19:33:24.386Z,53.03
2019-05-16T19:35:51.059Z,53.32
2019-05-16T19:38:20.677Z,53.39
2019-05-16T19:40:47.314Z,53.22
2019-05-16T19:43:13.923Z,53.45
2019-05-16T19:45:43.277Z,53.48
2019-05-16T19:48:10.121Z,53.79
2019-05-16T19:50:37.393Z,53.96
2019-05-16T19:53:07.722Z,54.00
2019-05-16T19:55:36.595Z,54.39
2019-05-16T19:58:03.135Z,54.27
2019-05-16T20:00:31.556Z,54.22
2019-05-16T20:02:58.188Z,53.86
2019-05-16T20:05:26.691Z,54.02
2019-05-16T20:07:58.361Z,54.10
2019-05-16T20:10:26.975Z,53.90
2019-05-16T20:12:53.285Z,53.95
2019-05-16T20:15:22.600Z,53.92
2019-05-16T20:17:56.112Z,54.10
2019-05-16T20:20:18.651Z,53.98
2019-05-16T20:22:47.277Z,54.13
2019-05-16T20:25:16.365Z,54.13
2019-05-16T20:27:43.298Z,53.78
2019-05-16T20:30:13.154Z,54.17
2019-05-16T20:32:39.764Z,54.34
2019-05-16T20:35:08.785Z,54.15
2019-05-16T20:37:36.872Z,54.45
2019-05-16T20:40:03.512Z,54.29
2019-05-16T20:42:30.397Z,54.11
2019-05-16T20:44:59.722Z,54.02
2019-05-16T20:47:27.189Z,54.00
2019-05-16T20:49:53.970Z,54.12
2019-05-16T20:52:26.753Z,54.33
2019-05-16T20:54:52.980Z,54.69
2019-05-16T20:57:19.619Z,54.98
2019-05-16T20:59:49.191Z,54.97
2019-05-16T21:02:16.414Z,54.79
2019-05-16T21:04:43.213Z,54.90
2019-05-16T21:07:12.203Z,54.65
2019-05-16T21:09:38.841Z,54.61
2019-05-16T21:12:08.044Z,54.56
2019-05-16T21:14:35.926Z,54.72
2019-05-16T21:17:02.507Z,54.66
2019-05-16T21:19:29.116Z,54.86
2019-05-16T21:24:31.046Z,55.54
2019-05-16T21:26:57.912Z,56.13
2019-05-16T21:29:27.513Z,56.29
2019-05-16T21:31:56.605Z,56.90
2019-05-16T21:34:23.234Z,56.83
2019-05-16T21:36:50.123Z,56.73
2019-05-16T21:39:20.698Z,56.52
2019-05-16T21:41:47.578Z,56.64
2019-05-16T21:44:14.178Z,56.63
2019-05-16T21:46:46.902Z,56.47
2019-05-16T21:49:13.718Z,56.44
2019-05-16T21:51:40.328Z,56.55
2019-05-16T21:54:09.368Z,56.58
2019-05-16T21:56:37.265Z,56.88
2019-05-16T21:59:04.231Z,57.22
2019-05-16T22:01:37.330Z,57.18
2019-05-16T22:04:04.271Z,57.11
2019-05-16T22:06:31.100Z,56.95
2019-05-16T22:08:59.612Z,57.03
2019-05-16T22:11:26.434Z,56.72
2019-05-16T22:13:53.035Z,56.80
2019-05-16T22:16:22.632Z,56.96
2019-05-16T22:18:49.235Z,57.05
2019-05-16T22:21:16.698Z,57.26
2019-05-16T22:23:46.470Z,57.01
2019-05-16T22:26:13.254Z,56.93
2019-05-16T22:28:39.861Z,56.91
2019-05-16T22:31:08.695Z,57.00
2019-05-16T22:33:37.281Z,57.15
2019-05-16T22:36:03.612Z,57.38
2019-05-16T22:38:31.969Z,57.27
2019-05-16T22:40:58.576Z,57.33
2019-05-16T22:43:26.615Z,57.12
2019-05-16T22:45:57.408Z,57.29
2019-05-16T22:48:26.669Z,57.46
2019-05-16T22:50:53.554Z,57.37
2019-05-16T22:55:56.550Z,57.85
2019-05-16T22:58:22.723Z,58.01
2019-05-16T23:00:49.599Z,58.12
2019-05-16T23:03:18.400Z,58.05
2019-05-16T23:05:47.236Z,57.92
2019-05-16T23:08:13.334Z,57.96
2019-05-16T23:13:17.006Z,57.45
2019-05-16T23:15:43.751Z,57.54
2019-05-16T23:18:10.360Z,57.69
2019-05-16T23:20:38.938Z,57.75
2019-05-16T23:23:07.135Z,57.99
2019-05-16T23:25:34.333Z,57.94
2019-05-16T23:28:02.973Z,58.01
2019-05-16T23:30:29.591Z,58.36
2019-05-16T23:32:56.385Z,58.51
2019-05-16T23:35:26.904Z,59.06
2019-05-16T23:37:53.547Z,58.91
2019-05-16T23:40:20.181Z,58.73
2019-05-16T23:42:48.642Z,58.75
2019-05-16T23:45:17.106Z,58.30
2019-05-16T23:47:43.610Z,58.49
2019-05-16T23:50:12.553Z,58.35
2019-05-16T23:52:39.159Z,58.43
2019-05-16T23:55:08.176Z,58.35
2019-05-16T23:57:37.760Z,58.30
